Time;durP1;ratioP1;P1;durP2;ratioP2;P2;SDS_P1;SDS_P2;PMS_P1;PMS_P2;Temp;Humidity;BMP_temperature;BMP_pressure;BME280_temperature;BME280_humidity;BME280_pressure;Samples;Min_cycle;Max_cycle;Signal;HPM_P1;HPM_P2
2021/10/20 00:00:44;;;;;;;1.27;0.77;;;9.80;99.90;;;;;;5049837;28;20238;-80
2021/10/20 00:03:10;;;;;;;0.63;0.47;;;9.70;99.90;;;;;;5064270;28;20188;-80
2021/10/20 00:05:36;;;;;;;0.97;0.57;;;9.60;99.90;;;;;;5053665;28;20189;-80
2021/10/20 00:08:06;;;;;;;0.73;0.47;;;9.40;99.90;;;;;;5049017;28;20292;-81
2021/10/20 00:10:33;;;;;;;0.50;0.50;;;9.40;99.90;;;;;;5055711;28;20524;-80
2021/10/20 00:12:58;;;;;;;0.57;0.57;;;9.40;99.90;;;;;;5053994;28;20663;-80
2021/10/20 00:15:24;;;;;;;1.40;0.67;;;9.40;99.90;;;;;;5063706;28;20264;-80
2021/10/20 00:17:50;;;;;;;0.57;0.57;;;9.50;99.90;;;;;;5058855;28;20203;-80
2021/10/20 00:20:20;;;;;;;0.30;0.30;;;9.50;99.90;;;;;;5058286;28;20234;-81
2021/10/20 00:22:46;;;;;;;0.83;0.63;;;9.60;99.90;;;;;;5053366;28;20735;-81
2021/10/20 00:25:13;;;;;;;2.00;1.47;;;9.70;99.90;;;;;;5059834;28;20253;-81
2021/10/20 00:27:39;;;;;;;0.70;0.70;;;9.80;99.90;;;;;;5049271;28;20213;-80
2021/10/20 00:30:06;;;;;;;0.77;0.63;;;9.80;99.90;;;;;;5063597;28;20193;-80
2021/10/20 00:32:31;;;;;;;0.93;0.33;;;9.70;99.90;;;;;;5052122;28;20665;-81
2021/10/20 00:34:57;;;;;;;0.67;0.67;;;9.60;99.90;;;;;;5063095;28;20281;-80
2021/10/20 00:37:22;;;;;;;0.60;0.60;;;9.60;99.90;;;;;;5062889;28;20277;-81
2021/10/20 00:39:48;;;;;;;0.83;0.50;;;9.60;99.90;;;;;;5053288;28;20186;-80
2021/10/20 00:42:14;;;;;;;1.13;0.47;;;9.60;99.90;;;;;;5058325;28;20230;-81
2021/10/20 00:44:48;;;;;;;0.40;0.40;;;9.70;99.90;;;;;;5055106;28;20619;-81
2021/10/20 00:47:14;;;;;;;0.47;0.47;;;9.70;99.90;;;;;;5060514;28;20224;-81
2021/10/20 00:49:40;;;;;;;0.50;0.50;;;9.70;99.90;;;;;;5057376;28;20277;-81
2021/10/20 00:52:06;;;;;;;0.97;0.60;;;9.60;99.90;;;;;;5048042;28;20272;-80
2021/10/20 00:54:31;;;;;;;0.20;0.20;;;9.40;99.90;;;;;;5043669;28;20204;-81
2021/10/20 00:56:57;;;;;;;0.87;0.37;;;9.50;99.90;;;;;;5092952;28;20231;-80
2021/10/20 00:59:23;;;;;;;0.63;0.63;;;9.50;99.90;;;;;;5051942;28;20210;-81
2021/10/20 01:01:48;;;;;;;0.40;0.40;;;9.60;99.90;;;;;;5052923;28;20680;-80
2021/10/20 01:04:14;;;;;;;0.63;0.63;;;9.70;99.90;;;;;;5060314;28;20227;-81
2021/10/20 01:06:39;;;;;;;0.57;0.57;;;9.60;99.90;;;;;;5065998;28;20755;-80
2021/10/20 01:09:05;;;;;;;1.07;1.00;;;9.70;99.90;;;;;;5062930;28;20190;-81
2021/10/20 01:11:31;;;;;;;1.17;0.73;;;9.70;99.90;;;;;;5064552;28;20556;-81
2021/10/20 01:13:57;;;;;;;2.53;1.50;;;9.60;99.90;;;;;;5057818;28;20204;-81
2021/10/20 01:16:22;;;;;;;0.87;0.70;;;9.70;99.90;;;;;;5057277;28;20217;-81
2021/10/20 01:18:48;;;;;;;0.50;0.40;;;9.70;99.90;;;;;;5067779;28;20224;-80
2021/10/20 01:21:17;;;;;;;0.50;0.50;;;9.60;99.90;;;;;;5059530;28;20727;-81
2021/10/20 01:23:44;;;;;;;0.60;0.50;;;9.70;99.90;;;;;;5055193;28;20188;-80
2021/10/20 01:26:09;;;;;;;0.50;0.50;;;9.70;99.90;;;;;;5055295;28;20185;-81
2021/10/20 01:28:35;;;;;;;0.33;0.33;;;9.70;99.90;;;;;;5047650;28;20206;-81
2021/10/20 01:31:01;;;;;;;0.23;0.23;;;9.60;99.90;;;;;;5066037;28;20179;-81
2021/10/20 01:33:26;;;;;;;1.50;0.40;;;9.60;99.90;;;;;;5064877;28;20212;-80
2021/10/20 01:35:52;;;;;;;0.73;0.73;;;9.50;99.90;;;;;;5059292;28;20180;-81
2021/10/20 01:38:17;;;;;;;2.47;0.77;;;9.50;99.90;;;;;;5051912;28;20229;-81
2021/10/20 01:40:43;;;;;;;0.50;0.50;;;9.40;99.90;;;;;;5051635;28;20220;-80
2021/10/20 01:43:08;;;;;;;1.30;0.80;;;9.40;99.90;;;;;;5054419;28;20189;-81
2021/10/20 01:45:34;;;;;;;0.77;0.70;;;9.40;99.90;;;;;;5059548;28;20189;-81
2021/10/20 01:48:00;;;;;;;0.30;0.30;;;9.50;99.90;;;;;;5057148;28;20212;-81
2021/10/20 01:50:25;;;;;;;1.00;0.57;;;9.40;99.90;;;;;;5062717;28;20197;-80
2021/10/20 01:52:51;;;;;;;1.60;0.80;;;9.40;99.90;;;;;;5051919;28;20218;-81
2021/10/20 01:55:17;;;;;;;1.33;1.10;;;9.30;99.90;;;;;;5051858;28;20178;-81
2021/10/20 01:57:43;;;;;;;0.73;0.73;;;9.30;99.90;;;;;;5052392;28;20202;-81
2021/10/20 02:00:10;;;;;;;2.57;0.83;;;9.20;99.90;;;;;;5051460;28;20568;-81
2021/10/20 02:02:36;;;;;;;0.50;0.50;;;9.30;99.90;;;;;;5048925;28;20186;-81
2021/10/20 02:05:02;;;;;;;0.50;0.50;;;9.20;99.90;;;;;;5057784;28;20185;-81
2021/10/20 02:07:28;;;;;;;0.20;0.20;;;9.30;99.90;;;;;;5050687;28;20250;-81
2021/10/20 02:09:53;;;;;;;1.03;0.83;;;9.40;99.90;;;;;;5050065;28;20178;-81
2021/10/20 02:12:19;;;;;;;0.67;0.60;;;9.40;99.90;;;;;;5049325;28;20202;-81
2021/10/20 02:14:44;;;;;;;1.23;0.83;;;9.50;99.90;;;;;;5055576;28;20207;-81
2021/10/20 02:17:11;;;;;;;0.67;0.67;;;9.60;99.90;;;;;;5050029;28;20203;-80
2021/10/20 02:19:36;;;;;;;2.93;1.83;;;9.50;99.90;;;;;;5060797;28;20275;-81
2021/10/20 02:22:04;;;;;;;0.60;0.60;;;9.50;99.90;;;;;;5060786;28;20203;-80
2021/10/20 02:24:30;;;;;;;0.47;0.47;;;9.40;99.90;;;;;;5059772;28;20190;-80
2021/10/20 02:26:56;;;;;;;0.43;0.43;;;9.40;99.90;;;;;;5060128;28;20711;-81
2021/10/20 02:29:22;;;;;;;0.77;0.77;;;9.30;99.90;;;;;;5060307;28;20223;-81
2021/10/20 02:31:47;;;;;;;0.70;0.70;;;9.30;99.90;;;;;;5068131;28;20543;-81
2021/10/20 02:34:18;;;;;;;0.20;0.20;;;9.40;99.90;;;;;;5057321;28;20741;-80
2021/10/20 02:36:44;;;;;;;1.23;0.77;;;9.30;99.90;;;;;;5055360;28;20224;-81
2021/10/20 02:39:11;;;;;;;1.50;0.40;;;9.30;99.90;;;;;;5056447;28;20647;-81
2021/10/20 02:41:37;;;;;;;0.53;0.53;;;9.30;99.90;;;;;;5062129;28;20178;-81
2021/10/20 02:44:04;;;;;;;0.60;0.40;;;9.40;99.90;;;;;;5050427;28;20284;-81
2021/10/20 02:46:30;;;;;;;0.33;0.33;;;9.50;99.90;;;;;;5049070;28;20680;-81
2021/10/20 02:48:56;;;;;;;0.10;0.10;;;9.60;99.90;;;;;;5057311;28;20186;-80
2021/10/20 02:51:22;;;;;;;2.13;1.07;;;9.70;99.90;;;;;;5053187;28;20678;-81
2021/10/20 02:53:48;;;;;;;0.97;0.60;;;9.80;99.90;;;;;;5050562;28;20202;-81
2021/10/20 02:56:15;;;;;;;2.33;0.83;;;9.90;99.90;;;;;;5047750;28;20188;-79
2021/10/20 02:58:41;;;;;;;0.40;0.40;;;9.90;99.90;;;;;;5051974;28;20178;-81
2021/10/20 03:01:06;;;;;;;0.30;0.30;;;10.00;99.90;;;;;;5050772;28;20183;-81
2021/10/20 03:03:32;;;;;;;0.13;0.13;;;9.90;99.90;;;;;;5047921;28;20215;-81
2021/10/20 03:05:58;;;;;;;0.30;0.30;;;9.80;99.90;;;;;;5050619;28;20211;-81
2021/10/20 03:08:23;;;;;;;2.00;0.93;;;9.80;99.90;;;;;;5059457;28;20281;-81
2021/10/20 03:10:49;;;;;;;1.83;1.33;;;9.80;99.90;;;;;;5056880;28;20188;-81
2021/10/20 03:13:14;;;;;;;0.70;0.70;;;9.70;99.90;;;;;;5054583;28;20740;-81
2021/10/20 03:15:40;;;;;;;0.30;0.30;;;9.70;99.90;;;;;;5056252;28;20195;-81
2021/10/20 03:18:06;;;;;;;0.47;0.47;;;9.70;99.90;;;;;;5040997;28;20199;-82
2021/10/20 03:20:31;;;;;;;0.37;0.37;;;9.70;99.90;;;;;;5059438;28;20212;-81
2021/10/20 03:22:58;;;;;;;0.30;0.30;;;9.70;99.90;;;;;;5056388;28;20225;-80
2021/10/20 03:25:23;;;;;;;0.43;0.43;;;9.60;99.90;;;;;;5047230;28;20654;-80
2021/10/20 03:27:50;;;;;;;0.20;0.20;;;9.60;99.90;;;;;;5046232;28;20239;-81
2021/10/20 03:30:18;;;;;;;0.60;0.60;;;9.50;99.90;;;;;;5056317;28;20265;-81
2021/10/20 03:32:44;;;;;;;1.57;0.73;;;9.50;99.90;;;;;;5047963;28;20270;-80
2021/10/20 03:35:11;;;;;;;0.50;0.50;;;9.50;99.90;;;;;;5049020;28;20213;-81
2021/10/20 03:37:37;;;;;;;0.37;0.37;;;9.50;99.90;;;;;;5055313;28;20208;-81
2021/10/20 03:40:03;;;;;;;0.40;0.40;;;9.40;99.90;;;;;;5053007;28;20210;-81
2021/10/20 03:42:29;;;;;;;1.83;0.53;;;9.50;99.90;;;;;;5055007;28;20216;-81
2021/10/20 03:44:55;;;;;;;0.13;0.13;;;9.50;99.90;;;;;;5066967;28;20647;-81
2021/10/20 03:47:21;;;;;;;0.20;0.20;;;9.50;99.90;;;;;;5047561;28;20245;-81
2021/10/20 03:49:48;;;;;;;0.57;0.47;;;9.50;99.90;;;;;;5058402;28;20213;-80
2021/10/20 03:52:14;;;;;;;0.67;0.67;;;9.40;99.90;;;;;;5052707;28;20240;-81
2021/10/20 03:54:39;;;;;;;0.53;0.53;;;9.40;99.90;;;;;;5048843;28;20262;-81
2021/10/20 03:57:05;;;;;;;2.33;0.60;;;9.30;99.90;;;;;;5053447;28;20601;-81
2021/10/20 03:59:31;;;;;;;1.30;0.53;;;9.40;99.90;;;;;;5058623;28;20186;-80
2021/10/20 04:01:56;;;;;;;1.17;0.60;;;9.30;99.90;;;;;;5055832;28;20223;-81
2021/10/20 04:04:22;;;;;;;0.53;0.53;;;9.30;99.90;;;;;;5046313;28;20659;-80
2021/10/20 04:06:48;;;;;;;0.60;0.40;;;9.40;99.90;;;;;;5046674;28;20580;-80
2021/10/20 04:09:13;;;;;;;0.90;0.90;;;9.40;99.90;;;;;;5052439;28;20187;-81
2021/10/20 04:11:39;;;;;;;1.10;0.60;;;9.40;99.90;;;;;;5055158;28;20287;-81
2021/10/20 04:14:04;;;;;;;0.33;0.33;;;9.50;99.90;;;;;;5051347;28;20740;-81
2021/10/20 04:16:30;;;;;;;0.20;0.20;;;9.40;99.90;;;;;;5053388;28;20569;-80
2021/10/20 04:18:55;;;;;;;0.40;0.37;;;9.40;99.90;;;;;;5049162;28;20548;-81
2021/10/20 04:21:21;;;;;;;0.60;0.50;;;9.50;99.90;;;;;;5050139;28;20191;-81
2021/10/20 04:23:47;;;;;;;1.07;0.60;;;9.50;99.90;;;;;;5047760;28;20183;-81
2021/10/20 04:26:12;;;;;;;1.00;0.77;;;9.60;99.90;;;;;;5047672;28;20183;-81
2021/10/20 04:28:38;;;;;;;0.20;0.20;;;9.60;99.90;;;;;;5047162;28;20190;-80
2021/10/20 04:31:03;;;;;;;2.63;0.70;;;9.60;99.90;;;;;;5055605;28;20222;-81
2021/10/20 04:33:29;;;;;;;0.47;0.40;;;9.60;99.90;;;;;;5049962;28;20595;-81
2021/10/20 04:35:54;;;;;;;0.30;0.30;;;9.70;99.90;;;;;;5050386;28;20183;-81
2021/10/20 04:38:20;;;;;;;0.37;0.37;;;9.70;99.90;;;;;;5057264;28;20291;-81
2021/10/20 04:40:46;;;;;;;0.50;0.50;;;9.60;99.90;;;;;;5058032;28;20191;-80
2021/10/20 04:43:11;;;;;;;0.50;0.50;;;9.60;99.90;;;;;;5043682;28;20275;-81
2021/10/20 04:45:37;;;;;;;0.30;0.30;;;9.80;99.90;;;;;;5054820;28;20184;-81
2021/10/20 04:48:03;;;;;;;0.50;0.40;;;9.70;99.90;;;;;;5081727;28;20212;-80
2021/10/20 04:50:29;;;;;;;0.93;0.90;;;9.80;99.90;;;;;;5051193;28;20193;-81
2021/10/20 04:52:54;;;;;;;0.40;0.40;;;9.90;99.90;;;;;;5063727;28;20568;-81
2021/10/20 04:55:20;;;;;;;0.70;0.70;;;9.90;99.90;;;;;;5051040;28;20321;-81
2021/10/20 04:57:51;;;;;;;0.37;0.37;;;10.00;99.90;;;;;;5048635;28;20215;-81
2021/10/20 05:00:18;;;;;;;0.40;0.40;;;10.00;99.90;;;;;;5050524;28;20181;-82
2021/10/20 05:02:43;;;;;;;0.43;0.43;;;10.10;99.90;;;;;;5061132;28;20210;-82
2021/10/20 05:05:09;;;;;;;0.50;0.50;;;10.20;99.90;;;;;;5049448;28;20722;-82
2021/10/20 05:07:54;;;;;;;0.60;0.60;;;10.20;99.90;;;;;;5053967;28;20210;-82
2021/10/20 05:10:21;;;;;;;1.17;0.30;;;10.20;99.90;;;;;;5061632;28;20250;-81
2021/10/20 05:12:47;;;;;;;0.73;0.20;;;10.10;99.90;;;;;;5060522;28;20187;-82
2021/10/20 05:15:14;;;;;;;0.20;0.20;;;9.90;99.90;;;;;;5051626;28;20574;-80
2021/10/20 05:17:41;;;;;;;0.37;0.37;;;9.80;99.90;;;;;;5053390;28;20321;-80
2021/10/20 05:20:08;;;;;;;0.30;0.30;;;9.50;99.90;;;;;;5045585;28;20181;-81
2021/10/20 05:22:38;;;;;;;0.73;0.70;;;9.50;99.90;;;;;;5048497;28;20195;-81
2021/10/20 05:25:05;;;;;;;0.53;0.53;;;9.60;99.90;;;;;;5049072;28;20554;-81
2021/10/20 05:27:32;;;;;;;0.43;0.43;;;9.70;99.90;;;;;;5054095;28;20216;-81
2021/10/20 05:29:57;;;;;;;0.30;0.30;;;9.70;99.90;;;;;;5052393;28;20251;-81
2021/10/20 05:32:24;;;;;;;0.20;0.20;;;9.80;99.90;;;;;;5061591;28;20193;-81
2021/10/20 05:34:50;;;;;;;0.40;0.30;;;9.90;99.90;;;;;;5060397;28;20217;-81
2021/10/20 05:37:16;;;;;;;0.97;0.67;;;9.90;99.90;;;;;;5056446;28;20246;-82
2021/10/20 05:39:41;;;;;;;0.40;0.40;;;9.80;99.90;;;;;;5053733;28;20192;-83
2021/10/20 05:42:07;;;;;;;0.90;0.80;;;9.70;99.90;;;;;;5061717;28;20725;-81
2021/10/20 05:44:33;;;;;;;1.13;0.63;;;9.50;99.90;;;;;;5053023;28;20189;-81
2021/10/20 05:46:58;;;;;;;0.20;0.20;;;9.50;99.90;;;;;;5054882;28;20286;-81
2021/10/20 05:49:24;;;;;;;0.93;0.60;;;9.40;99.90;;;;;;5062514;28;20190;-81
2021/10/20 05:51:49;;;;;;;0.40;0.40;;;9.30;99.90;;;;;;5056810;28;20236;-81
2021/10/20 05:54:15;;;;;;;0.97;0.47;;;9.40;99.90;;;;;;5058917;28;20672;-82
2021/10/20 05:56:40;;;;;;;0.20;0.20;;;9.50;99.90;;;;;;5053794;28;20204;-82
2021/10/20 05:59:07;;;;;;;0.57;0.57;;;9.60;99.90;;;;;;5052760;28;20192;-82
2021/10/20 06:01:33;;;;;;;0.33;0.30;;;9.60;99.90;;;;;;5055839;28;20188;-82
2021/10/20 06:03:59;;;;;;;0.37;0.37;;;9.70;99.90;;;;;;5054738;28;20184;-82
2021/10/20 06:06:25;;;;;;;1.23;1.17;;;9.70;99.90;;;;;;5063503;28;20205;-82
2021/10/20 06:08:51;;;;;;;0.40;0.40;;;9.80;99.90;;;;;;5054871;28;20182;-82
2021/10/20 06:11:17;;;;;;;0.77;0.67;;;10.00;99.90;;;;;;5065361;28;20657;-82
2021/10/20 06:13:43;;;;;;;1.00;0.60;;;10.10;99.90;;;;;;5051100;28;20212;-82
2021/10/20 06:16:10;;;;;;;0.30;0.30;;;10.20;99.90;;;;;;5062609;28;20608;-82
2021/10/20 06:18:37;;;;;;;0.37;0.37;;;10.20;99.90;;;;;;5055951;28;20646;-82
2021/10/20 06:21:03;;;;;;;0.57;0.50;;;10.40;99.90;;;;;;5069726;28;20183;-82
2021/10/20 06:23:28;;;;;;;0.33;0.33;;;10.50;99.90;;;;;;5064432;28;20218;-81
2021/10/20 06:25:54;;;;;;;0.43;0.43;;;10.60;99.90;;;;;;5052879;28;20190;-82
2021/10/20 06:28:19;;;;;;;0.50;0.50;;;10.60;99.90;;;;;;5066701;28;20207;-81
2021/10/20 06:30:45;;;;;;;0.90;0.90;;;10.70;99.90;;;;;;5061035;28;20726;-81
2021/10/20 06:33:11;;;;;;;1.70;0.97;;;10.70;99.90;;;;;;5052325;28;20184;-81
2021/10/20 06:35:36;;;;;;;0.57;0.57;;;10.90;99.90;;;;;;5051794;28;20179;-81
2021/10/20 06:38:02;;;;;;;2.30;0.67;;;10.90;99.90;;;;;;5063367;28;20284;-81
2021/10/20 06:40:28;;;;;;;1.50;0.87;;;10.80;99.90;;;;;;5064960;28;20183;-81
2021/10/20 06:42:53;;;;;;;0.67;0.67;;;10.70;99.90;;;;;;5062218;28;20195;-81
2021/10/20 06:45:19;;;;;;;0.70;0.70;;;10.60;99.90;;;;;;5066407;28;20245;-80
2021/10/20 06:47:45;;;;;;;1.80;0.70;;;10.60;99.90;;;;;;5064110;28;20213;-81
2021/10/20 06:50:10;;;;;;;0.70;0.47;;;10.70;99.90;;;;;;5061413;28;20183;-81
2021/10/20 06:52:36;;;;;;;1.43;0.63;;;10.60;99.90;;;;;;5057715;28;20202;-81
2021/10/20 06:55:03;;;;;;;0.53;0.53;;;10.60;99.90;;;;;;5055688;28;20210;-81
2021/10/20 06:57:29;;;;;;;0.80;0.80;;;10.70;99.90;;;;;;5033590;28;20213;-81
2021/10/20 06:59:54;;;;;;;0.47;0.47;;;10.70;99.90;;;;;;5043391;28;20184;-81
2021/10/20 07:02:20;;;;;;;0.30;0.30;;;10.80;99.90;;;;;;5042974;28;20249;-81
2021/10/20 07:04:46;;;;;;;0.70;0.70;;;10.80;99.90;;;;;;5047730;28;20201;-82
2021/10/20 07:07:13;;;;;;;0.30;0.30;;;10.80;99.90;;;;;;5052667;28;20209;-81
2021/10/20 07:09:38;;;;;;;1.40;0.83;;;10.90;99.90;;;;;;5049939;28;20262;-81
2021/10/20 07:12:04;;;;;;;0.70;0.70;;;11.10;99.90;;;;;;5066354;28;20268;-81
2021/10/20 07:14:30;;;;;;;1.10;1.00;;;11.30;99.90;;;;;;5052514;28;20212;-81
2021/10/20 07:16:58;;;;;;;0.57;0.37;;;11.20;99.90;;;;;;5050938;28;20220;-81
2021/10/20 07:19:27;;;;;;;0.97;0.57;;;11.20;99.90;;;;;;5060273;28;20213;-81
2021/10/20 07:21:53;;;;;;;0.87;0.87;;;11.20;99.90;;;;;;5045647;28;20186;-81
2021/10/20 07:24:18;;;;;;;0.80;0.57;;;11.30;99.90;;;;;;5058916;28;20196;-81
2021/10/20 07:26:44;;;;;;;0.70;0.70;;;11.50;99.90;;;;;;5054246;28;20216;-81
2021/10/20 07:29:09;;;;;;;1.17;0.83;;;11.70;99.90;;;;;;5050832;28;20208;-81
2021/10/20 07:31:35;;;;;;;0.50;0.50;;;11.70;99.90;;;;;;5042981;28;20209;-81
2021/10/20 07:34:01;;;;;;;0.53;0.53;;;11.60;99.90;;;;;;5047557;28;20237;-81
2021/10/20 07:36:28;;;;;;;1.90;0.90;;;11.60;99.90;;;;;;5048313;28;20216;-81
2021/10/20 07:38:54;;;;;;;1.00;0.80;;;11.50;99.90;;;;;;5052083;28;20602;-81
2021/10/20 07:41:20;;;;;;;1.37;0.80;;;11.40;99.90;;;;;;5052121;28;20670;-82
2021/10/20 07:43:46;;;;;;;2.77;0.67;;;11.40;99.90;;;;;;5060222;28;20202;-81
2021/10/20 07:46:12;;;;;;;0.77;0.77;;;11.40;99.90;;;;;;5046633;28;20224;-82
2021/10/20 07:48:37;;;;;;;0.63;0.60;;;11.40;99.90;;;;;;5046071;28;20218;-81
2021/10/20 07:51:03;;;;;;;0.50;0.50;;;11.50;99.90;;;;;;5043739;28;20296;-81
2021/10/20 07:53:28;;;;;;;1.10;1.00;;;11.50;99.90;;;;;;5047114;28;20248;-81
2021/10/20 07:55:54;;;;;;;0.67;0.67;;;11.50;99.90;;;;;;5055723;28;20184;-80
2021/10/20 07:58:20;;;;;;;0.23;0.23;;;11.80;99.90;;;;;;5064119;28;20205;-81
2021/10/20 08:00:45;;;;;;;0.73;0.73;;;11.90;99.90;;;;;;5061070;28;20190;-80
2021/10/20 08:03:11;;;;;;;0.83;0.83;;;12.00;99.90;;;;;;5064408;28;20249;-81
2021/10/20 08:05:37;;;;;;;2.90;0.77;;;12.00;99.90;;;;;;5046512;28;20186;-81
2021/10/20 08:08:03;;;;;;;0.60;0.60;;;12.20;99.90;;;;;;5048776;28;20197;-80
2021/10/20 08:10:29;;;;;;;0.50;0.50;;;12.30;99.90;;;;;;5060185;28;20190;-81
2021/10/20 08:12:57;;;;;;;2.63;0.70;;;12.40;99.90;;;;;;5047145;28;20271;-80
2021/10/20 08:15:24;;;;;;;5.97;1.37;;;12.50;99.90;;;;;;5065790;28;20216;-81
2021/10/20 08:17:50;;;;;;;1.20;0.53;;;12.40;99.90;;;;;;5052520;28;20206;-81
2021/10/20 08:20:21;;;;;;;0.60;0.60;;;12.30;99.90;;;;;;5053258;28;20181;-81
2021/10/20 08:22:48;;;;;;;0.50;0.50;;;12.30;99.90;;;;;;5055796;28;20235;-81
2021/10/20 08:25:14;;;;;;;1.60;0.93;;;12.50;99.90;;;;;;5052296;28;20468;-81
2021/10/20 08:27:41;;;;;;;0.73;0.50;;;12.70;99.90;;;;;;5077625;28;20205;-81
2021/10/20 08:30:15;;;;;;;1.03;0.60;;;13.00;99.90;;;;;;5064884;28;20192;-81
2021/10/20 08:32:41;;;;;;;0.60;0.60;;;13.20;99.90;;;;;;5064525;28;20289;-81
2021/10/20 08:35:07;;;;;;;0.27;0.27;;;13.30;99.90;;;;;;5057362;28;20233;-80
2021/10/20 08:37:33;;;;;;;1.00;0.50;;;13.20;99.90;;;;;;5051885;28;20209;-81
2021/10/20 08:39:58;;;;;;;1.57;0.67;;;13.20;99.90;;;;;;5049837;28;20245;-81
2021/10/20 08:42:24;;;;;;;0.60;0.60;;;13.30;99.90;;;;;;5062318;28;20197;-81
2021/10/20 08:44:50;;;;;;;0.93;0.80;;;13.50;99.90;;;;;;5067142;28;20191;-81
2021/10/20 08:47:16;;;;;;;0.50;0.50;;;13.70;99.90;;;;;;5049354;28;20202;-81
2021/10/20 08:49:43;;;;;;;3.73;0.90;;;13.80;99.90;;;;;;5052074;28;20636;-81
2021/10/20 08:52:10;;;;;;;0.53;0.53;;;13.60;99.90;;;;;;5052320;28;20182;-81
2021/10/20 08:54:36;;;;;;;2.10;1.90;;;13.60;99.90;;;;;;5050212;28;20205;-80
2021/10/20 08:57:03;;;;;;;3.17;1.30;;;13.60;99.90;;;;;;5050604;28;20255;-81
2021/10/20 08:59:32;;;;;;;0.60;0.60;;;13.40;99.90;;;;;;5058236;28;20182;-81
2021/10/20 09:02:01;;;;;;;0.93;0.93;;;13.70;99.90;;;;;;5051070;28;20261;-81
2021/10/20 09:04:29;;;;;;;0.83;0.83;;;13.70;99.90;;;;;;5063293;28;20234;-81
2021/10/20 09:06:58;;;;;;;3.13;0.77;;;13.50;99.90;;;;;;5040917;28;20569;-81
2021/10/20 09:09:31;;;;;;;0.50;0.50;;;13.60;99.90;;;;;;5059504;28;20186;-81
2021/10/20 09:11:57;;;;;;;1.00;0.70;;;13.80;99.90;;;;;;5049364;28;20585;-80
2021/10/20 09:14:23;;;;;;;1.87;0.60;;;13.90;99.90;;;;;;5043748;28;20209;-81
2021/10/20 09:16:49;;;;;;;0.70;0.70;;;13.70;99.90;;;;;;5045825;28;20236;-81
2021/10/20 09:19:24;;;;;;;2.47;0.83;;;13.60;99.90;;;;;;5053263;28;20649;-81
2021/10/20 09:21:55;;;;;;;2.90;0.60;;;13.60;99.90;;;;;;5056624;28;20273;-80
2021/10/20 09:24:28;;;;;;;0.73;0.73;;;13.90;99.90;;;;;;5052553;28;20189;-81
2021/10/20 09:26:57;;;;;;;0.90;0.90;;;13.90;99.90;;;;;;5049660;28;20209;-81
2021/10/20 09:29:29;;;;;;;2.87;0.53;;;13.90;99.90;;;;;;5044698;28;20664;-80
2021/10/20 09:31:55;;;;;;;0.53;0.53;;;13.80;99.90;;;;;;5053131;28;20272;-81
2021/10/20 09:34:21;;;;;;;1.33;1.00;;;13.70;99.90;;;;;;5050609;28;20294;-81
2021/10/20 09:36:52;;;;;;;1.00;0.93;;;13.60;99.90;;;;;;5047853;28;20217;-81
2021/10/20 09:39:18;;;;;;;0.63;0.63;;;13.60;99.90;;;;;;5048884;28;20730;-81
2021/10/20 09:41:43;;;;;;;1.47;0.97;;;13.70;99.90;;;;;;5048036;28;20178;-82
2021/10/20 09:44:12;;;;;;;2.70;2.00;;;13.80;99.90;;;;;;5051862;28;20244;-82
2021/10/20 09:46:42;;;;;;;1.40;1.30;;;13.80;99.90;;;;;;5044525;28;20222;-81
2021/10/20 09:49:22;;;;;;;0.73;0.73;;;13.70;99.90;;;;;;5040183;28;20182;-81
2021/10/20 09:51:50;;;;;;;0.73;0.67;;;13.90;99.90;;;;;;5095567;28;20189;-82
2021/10/20 09:54:35;;;;;;;0.60;0.60;;;14.00;99.90;;;;;;5047757;28;20220;-82
2021/10/20 09:57:02;;;;;;;1.27;1.13;;;14.30;99.90;;;;;;5057972;28;20188;-82
2021/10/20 09:59:29;;;;;;;1.13;0.60;;;14.50;99.90;;;;;;5048256;28;20186;-82
2021/10/20 10:01:55;;;;;;;0.50;0.50;;;14.90;99.90;;;;;;5060012;28;20839;-82
2021/10/20 10:04:21;;;;;;;0.97;0.87;;;15.30;99.90;;;;;;5052581;28;20192;-82
2021/10/20 10:06:49;;;;;;;0.60;0.60;;;15.00;99.90;;;;;;5063070;28;20213;-82
2021/10/20 10:09:15;;;;;;;0.80;0.57;;;14.80;99.90;;;;;;5056642;28;20567;-83
2021/10/20 10:11:47;;;;;;;2.97;1.00;;;14.80;99.90;;;;;;5059575;28;20194;-83
2021/10/20 10:14:17;;;;;;;0.43;0.43;;;15.10;99.90;;;;;;5061526;28;20210;-82
2021/10/20 10:16:45;;;;;;;1.90;0.97;;;15.10;99.90;;;;;;5057057;28;20207;-82
2021/10/20 10:19:11;;;;;;;0.40;0.40;;;15.30;99.90;;;;;;5066888;28;20630;-82
2021/10/20 10:21:43;;;;;;;0.87;0.87;;;15.40;99.90;;;;;;5049088;28;20200;-82
2021/10/20 10:24:17;;;;;;;2.30;0.67;;;15.20;99.90;;;;;;5044220;28;20222;-82
2021/10/20 10:27:06;;;;;;;1.17;1.07;;;14.80;99.90;;;;;;5040935;28;20259;-81
2021/10/20 10:29:35;;;;;;;1.50;1.40;;;14.50;99.90;;;;;;5057587;28;20205;-82
2021/10/20 10:32:06;;;;;;;0.63;0.63;;;14.50;99.90;;;;;;5044901;28;20194;-82
2021/10/20 10:34:35;;;;;;;1.47;1.00;;;14.70;99.90;;;;;;5050905;28;20199;-82
2021/10/20 10:37:02;;;;;;;1.50;1.20;;;14.90;99.90;;;;;;5051200;28;20202;-82
2021/10/20 10:39:29;;;;;;;0.50;0.50;;;14.90;99.90;;;;;;5054782;28;20578;-82
2021/10/20 10:42:03;;;;;;;0.63;0.53;;;14.70;99.90;;;;;;5058195;28;20610;-82
2021/10/20 10:44:30;;;;;;;0.50;0.50;;;14.60;99.90;;;;;;5048767;28;20191;-81
2021/10/20 10:47:18;;;;;;;1.27;1.17;;;14.70;99.90;;;;;;5056436;28;20587;-80
2021/10/20 10:49:46;;;;;;;1.47;1.00;;;14.60;99.90;;;;;;5047154;28;20654;-81
2021/10/20 10:52:33;;;;;;;5.93;1.43;;;14.60;99.90;;;;;;5056807;28;20189;-81
2021/10/20 10:55:14;;;;;;;1.23;0.80;;;14.80;99.90;;;;;;5048464;28;20213;-80
2021/10/20 10:58:14;;;;;;;0.67;0.63;;;14.70;99.90;;;;;;5051117;28;20206;-80
2021/10/20 11:00:47;;;;;;;0.80;0.70;;;14.90;99.90;;;;;;5052956;28;20206;-80
2021/10/20 11:03:21;;;;;;;0.83;0.83;;;14.90;99.90;;;;;;5063949;28;20173;-80
2021/10/20 11:05:53;;;;;;;1.97;1.30;;;15.00;99.90;;;;;;5051987;28;20187;-80
2021/10/20 11:08:19;;;;;;;1.00;1.00;;;15.00;99.90;;;;;;5055412;28;20208;-80
2021/10/20 11:10:44;;;;;;;1.20;1.03;;;15.00;99.90;;;;;;5054180;28;20231;-80
2021/10/20 11:13:13;;;;;;;2.27;0.87;;;15.20;99.90;;;;;;5046558;28;20182;-80
2021/10/20 11:15:40;;;;;;;1.70;0.63;;;15.20;99.90;;;;;;5062983;28;20278;-80
2021/10/20 11:18:06;;;;;;;2.87;0.83;;;15.00;99.90;;;;;;5041857;28;20591;-80
2021/10/20 11:20:36;;;;;;;0.80;0.70;;;15.10;99.90;;;;;;5052418;28;20207;-81
2021/10/20 11:23:08;;;;;;;0.50;0.50;;;15.10;99.90;;;;;;5063062;28;20268;-80
2021/10/20 11:25:38;;;;;;;1.30;1.17;;;15.20;99.90;;;;;;5047074;28;20213;-80
2021/10/20 11:28:05;;;;;;;0.30;0.30;;;15.30;99.90;;;;;;5045547;28;20321;-80
2021/10/20 11:30:32;;;;;;;0.97;0.67;;;15.40;99.90;;;;;;5044639;28;20199;-80
2021/10/20 11:32:58;;;;;;;0.27;0.27;;;15.70;99.90;;;;;;5054889;28;20192;-82
2021/10/20 11:35:26;;;;;;;0.63;0.63;;;15.90;99.90;;;;;;5047807;28;20271;-82
2021/10/20 11:38:08;;;;;;;0.70;0.70;;;15.90;99.90;;;;;;5049275;28;20209;-81
2021/10/20 11:40:44;;;;;;;0.93;0.60;;;15.90;99.90;;;;;;5048966;28;20198;-81
2021/10/20 11:43:23;;;;;;;0.57;0.57;;;16.00;99.90;;;;;;5050616;28;20178;-81
2021/10/20 11:45:49;;;;;;;4.30;0.70;;;16.10;99.90;;;;;;5044608;28;20250;-80
2021/10/20 11:48:19;;;;;;;0.80;0.80;;;16.10;99.90;;;;;;5047648;28;20234;-81
2021/10/20 11:50:56;;;;;;;1.17;0.87;;;16.30;99.90;;;;;;5049379;28;20204;-81
2021/10/20 11:53:22;;;;;;;1.77;0.83;;;16.20;99.90;;;;;;5045257;28;20184;-81
2021/10/20 11:55:50;;;;;;;1.90;1.10;;;16.10;99.90;;;;;;5052637;28;20180;-81
2021/10/20 11:58:21;;;;;;;3.50;1.27;;;16.10;99.90;;;;;;5047071;28;20685;-81
2021/10/20 12:00:51;;;;;;;1.63;1.53;;;16.10;99.90;;;;;;5039366;28;20264;-81
2021/10/20 12:03:17;;;;;;;1.57;1.07;;;16.10;99.90;;;;;;5046488;28;22085;-81
2021/10/20 12:05:42;;;;;;;0.90;0.90;;;16.30;99.90;;;;;;5042442;28;20239;-82
2021/10/20 12:08:08;;;;;;;1.30;1.20;;;16.20;99.90;;;;;;5058009;28;20204;-81
2021/10/20 12:10:34;;;;;;;0.90;0.90;;;16.20;99.90;;;;;;5056960;28;20181;-81
2021/10/20 12:13:02;;;;;;;1.43;1.20;;;16.30;99.90;;;;;;5065833;28;20188;-81
2021/10/20 12:15:28;;;;;;;0.50;0.50;;;16.40;99.90;;;;;;5056843;28;20208;-81
2021/10/20 12:17:54;;;;;;;1.50;1.40;;;16.40;99.90;;;;;;5065108;28;20552;-81
2021/10/20 12:20:20;;;;;;;1.27;1.17;;;16.40;99.90;;;;;;5061052;28;20183;-81
2021/10/20 12:22:48;;;;;;;0.87;0.87;;;16.40;99.90;;;;;;5049504;28;20698;-81
2021/10/20 12:25:15;;;;;;;1.60;0.63;;;16.50;99.90;;;;;;5049025;28;20198;-81
2021/10/20 12:27:42;;;;;;;1.33;0.60;;;16.50;99.90;;;;;;5047595;28;20212;-81
2021/10/20 12:30:10;;;;;;;0.30;0.30;;;16.60;99.90;;;;;;5049841;28;20297;-81
2021/10/20 12:32:36;;;;;;;2.47;0.80;;;16.60;99.90;;;;;;5043884;28;20199;-81
2021/10/20 12:35:14;;;;;;;0.30;0.30;;;16.70;99.90;;;;;;5044730;28;20205;-80
2021/10/20 12:37:50;;;;;;;4.33;1.10;;;16.70;99.90;;;;;;5041729;28;20640;-79
2021/10/20 12:40:21;;;;;;;0.50;0.50;;;16.80;99.90;;;;;;5054321;28;20548;-83
2021/10/20 12:42:57;;;;;;;0.37;0.37;;;16.90;99.90;;;;;;5055521;28;20729;-81
2021/10/20 12:45:24;;;;;;;0.40;0.40;;;17.10;99.90;;;;;;5055528;28;20231;-81
2021/10/20 12:47:53;;;;;;;1.60;1.23;;;17.30;99.90;;;;;;5044382;28;20277;-81
2021/10/20 12:50:21;;;;;;;1.37;1.13;;;17.50;99.90;;;;;;5046654;28;20196;-81